sensor_id;sensor_type;location;lat;lon;timestamp;temperature;humidity
1594;DHT22;790;47.000;16.084;2022-08-21T00:06:11;20.00;99.90
1594;DHT22;790;47.000;16.084;2022-08-21T00:12:22;19.90;99.90
1594;DHT22;790;47.000;16.084;2022-08-21T00:18:30;20.00;99.90
1594;DHT22;790;47.000;16.084;2022-08-21T00:24:38;19.80;99.90
1594;DHT22;790;47.000;16.084;2022-08-21T00:30:47;19.80;99.90
1594;DHT22;790;47.000;16.084;2022-08-21T00:36:55;19.60;99.90
1594;DHT22;790;47.000;16.084;2022-08-21T00:43:04;19.50;99.90
1594;DHT22;790;47.000;16.084;2022-08-21T00:53:29;19.40;99.90
1594;DHT22;790;47.000;16.084;2022-08-21T00:59:53;19.30;99.90
1594;DHT22;790;47.000;16.084;2022-08-21T01:06:16;19.30;99.90
1594;DHT22;790;47.000;16.084;2022-08-21T01:12:39;19.30;99.90
1594;DHT22;790;47.000;16.084;2022-08-21T01:19:02;19.40;99.90
1594;DHT22;790;47.000;16.084;2022-08-21T01:25:25;19.40;99.90
1594;DHT22;790;47.000;16.084;2022-08-21T01:31:46;19.40;99.90
1594;DHT22;790;47.000;16.084;2022-08-21T01:38:07;19.40;99.90
1594;DHT22;790;47.000;16.084;2022-08-21T01:44:31;19.50;99.90
1594;DHT22;790;47.000;16.084;2022-08-21T01:55:17;20.00;99.90
1594;DHT22;790;47.000;16.084;2022-08-21T02:01:26;20.00;99.90
1594;DHT22;790;47.000;16.084;2022-08-21T02:07:36;19.90;99.90
1594;DHT22;790;47.000;16.084;2022-08-21T02:13:45;19.90;99.90
1594;DHT22;790;47.000;16.084;2022-08-21T02:19:54;19.90;99.90
1594;DHT22;790;47.000;16.084;2022-08-21T02:26:03;19.90;99.90
1594;DHT22;790;47.000;16.084;2022-08-21T02:32:11;19.80;99.90
1594;DHT22;790;47.000;16.084;2022-08-21T02:38:23;19.60;99.90
1594;DHT22;790;47.000;16.084;2022-08-21T02:44:31;19.60;99.90
1594;DHT22;790;47.000;16.084;2022-08-21T02:54:54;19.20;99.90
1594;DHT22;790;47.000;16.084;2022-08-21T03:01:16;19.00;99.90
1594;DHT22;790;47.000;16.084;2022-08-21T03:07:37;18.80;99.90
1594;DHT22;790;47.000;16.084;2022-08-21T03:14:00;18.60;99.90
1594;DHT22;790;47.000;16.084;2022-08-21T03:20:25;18.30;99.90
1594;DHT22;790;47.000;16.084;2022-08-21T03:26:46;18.20;99.90
1594;DHT22;790;47.000;16.084;2022-08-21T03:33:10;18.10;99.90
1594;DHT22;790;47.000;16.084;2022-08-21T03:39:31;18.00;99.90
1594;DHT22;790;47.000;16.084;2022-08-21T03:45:52;18.00;99.90
1594;DHT22;790;47.000;16.084;2022-08-21T03:56:38;17.80;99.90
1594;DHT22;790;47.000;16.084;2022-08-21T04:02:47;17.60;99.90
1594;DHT22;790;47.000;16.084;2022-08-21T04:08:55;17.60;99.90
1594;DHT22;790;47.000;16.084;2022-08-21T04:15:04;17.60;99.90
1594;DHT22;790;47.000;16.084;2022-08-21T04:21:12;17.50;99.90
1594;DHT22;790;47.000;16.084;2022-08-21T04:27:20;17.40;99.90
1594;DHT22;790;47.000;16.084;2022-08-21T04:33:29;17.40;99.90
1594;DHT22;790;47.000;16.084;2022-08-21T04:39:37;17.30;99.90
1594;DHT22;790;47.000;16.084;2022-08-21T04:45:47;17.30;99.90
1594;DHT22;790;47.000;16.084;2022-08-21T04:56:14;17.30;99.90
1594;DHT22;790;47.000;16.084;2022-08-21T05:02:37;17.30;99.90
1594;DHT22;790;47.000;16.084;2022-08-21T05:08:58;17.40;99.90
1594;DHT22;790;47.000;16.084;2022-08-21T05:15:21;17.70;99.90
1594;DHT22;790;47.000;16.084;2022-08-21T05:21:44;17.90;99.90
1594;DHT22;790;47.000;16.084;2022-08-21T05:28:07;18.00;99.90
1594;DHT22;790;47.000;16.084;2022-08-21T05:34:30;18.10;99.90
1594;DHT22;790;47.000;16.084;2022-08-21T05:40:51;18.20;99.90
1594;DHT22;790;47.000;16.084;2022-08-21T05:47:12;18.40;99.90
1594;DHT22;790;47.000;16.084;2022-08-21T05:57:58;18.80;99.90
1594;DHT22;790;47.000;16.084;2022-08-21T06:04:07;19.00;99.90
1594;DHT22;790;47.000;16.084;2022-08-21T06:10:14;19.20;99.90
1594;DHT22;790;47.000;16.084;2022-08-21T06:16:24;19.30;99.90
1594;DHT22;790;47.000;16.084;2022-08-21T06:22:33;19.50;99.90
1594;DHT22;790;47.000;16.084;2022-08-21T06:28:42;19.80;99.90
1594;DHT22;790;47.000;16.084;2022-08-21T06:34:51;20.10;99.90
1594;DHT22;790;47.000;16.084;2022-08-21T06:41:00;20.40;99.90
1594;DHT22;790;47.000;16.084;2022-08-21T06:47:08;20.50;99.90
1594;DHT22;790;47.000;16.084;2022-08-21T06:57:32;20.90;99.90
1594;DHT22;790;47.000;16.084;2022-08-21T07:03:52;21.20;99.90
1594;DHT22;790;47.000;16.084;2022-08-21T07:10:13;21.20;99.90
1594;DHT22;790;47.000;16.084;2022-08-21T07:16:36;21.40;99.90
1594;DHT22;790;47.000;16.084;2022-08-21T07:23:01;21.60;99.90
1594;DHT22;790;47.000;16.084;2022-08-21T07:29:22;21.80;99.90
1594;DHT22;790;47.000;16.084;2022-08-21T07:35:45;22.10;99.90
1594;DHT22;790;47.000;16.084;2022-08-21T07:42:06;22.30;99.90
1594;DHT22;790;47.000;16.084;2022-08-21T07:48:28;22.50;99.90
1594;DHT22;790;47.000;16.084;2022-08-21T07:59:15;22.70;99.90
1594;DHT22;790;47.000;16.084;2022-08-21T08:05:25;22.80;99.90
1594;DHT22;790;47.000;16.084;2022-08-21T08:11:33;22.90;99.90
1594;DHT22;790;47.000;16.084;2022-08-21T08:17:42;23.00;99.90
1594;DHT22;790;47.000;16.084;2022-08-21T08:23:50;23.20;99.90
1594;DHT22;790;47.000;16.084;2022-08-21T08:29:58;23.20;99.90
1594;DHT22;790;47.000;16.084;2022-08-21T08:36:13;23.20;99.90
1594;DHT22;790;47.000;16.084;2022-08-21T08:42:25;23.30;99.90
1594;DHT22;790;47.000;16.084;2022-08-21T08:48:41;23.50;99.90
1594;DHT22;790;47.000;16.084;2022-08-21T08:59:13;23.90;99.90
1594;DHT22;790;47.000;16.084;2022-08-21T09:05:42;24.10;99.90
1594;DHT22;790;47.000;16.084;2022-08-21T09:12:12;24.30;99.90
1594;DHT22;790;47.000;16.084;2022-08-21T09:18:46;24.40;99.90
1594;DHT22;790;47.000;16.084;2022-08-21T09:25:17;24.60;99.90
1594;DHT22;790;47.000;16.084;2022-08-21T09:31:40;24.80;99.90
1594;DHT22;790;47.000;16.084;2022-08-21T09:38:05;24.60;99.90
1594;DHT22;790;47.000;16.084;2022-08-21T09:44:30;24.80;99.90
1594;DHT22;790;47.000;16.084;2022-08-21T09:50:52;24.70;99.90
1594;DHT22;790;47.000;16.084;2022-08-21T10:01:52;24.80;99.90
1594;DHT22;790;47.000;16.084;2022-08-21T10:08:01;24.90;99.90
1594;DHT22;790;47.000;16.084;2022-08-21T10:14:17;24.90;99.90
1594;DHT22;790;47.000;16.084;2022-08-21T10:20:31;25.10;99.90
1594;DHT22;790;47.000;16.084;2022-08-21T10:26:48;25.10;99.90
1594;DHT22;790;47.000;16.084;2022-08-21T10:33:21;25.10;99.90
1594;DHT22;790;47.000;16.084;2022-08-21T10:39:35;25.20;99.90
1594;DHT22;790;47.000;16.084;2022-08-21T10:45:59;25.30;99.90
1594;DHT22;790;47.000;16.084;2022-08-21T10:52:28;25.40;99.90
1594;DHT22;790;47.000;16.084;2022-08-21T11:03:05;25.70;99.90
1594;DHT22;790;47.000;16.084;2022-08-21T11:09:28;25.60;99.90
1594;DHT22;790;47.000;16.084;2022-08-21T11:15:55;25.70;99.90
1594;DHT22;790;47.000;16.084;2022-08-21T11:22:23;25.50;99.90
1594;DHT22;790;47.000;16.084;2022-08-21T11:28:50;25.40;99.90
1594;DHT22;790;47.000;16.084;2022-08-21T11:35:20;25.50;99.90
1594;DHT22;790;47.000;16.084;2022-08-21T11:41:52;25.70;99.90
1594;DHT22;790;47.000;16.084;2022-08-21T11:48:22;25.80;99.90
1594;DHT22;790;47.000;16.084;2022-08-21T11:54:49;25.70;99.90
1594;DHT22;790;47.000;16.084;2022-08-21T12:06:13;26.20;99.90
1594;DHT22;790;47.000;16.084;2022-08-21T12:12:25;26.10;99.90
1594;DHT22;790;47.000;16.084;2022-08-21T12:18:35;26.00;99.90
1594;DHT22;790;47.000;16.084;2022-08-21T12:24:49;25.80;99.90
1594;DHT22;790;47.000;16.084;2022-08-21T12:30:57;26.10;99.90
1594;DHT22;790;47.000;16.084;2022-08-21T12:37:12;26.00;99.90
1594;DHT22;790;47.000;16.084;2022-08-21T12:43:29;25.90;99.90
1594;DHT22;790;47.000;16.084;2022-08-21T12:49:45;25.90;99.90
1594;DHT22;790;47.000;16.084;2022-08-21T12:55:57;26.00;99.90
1594;DHT22;790;47.000;16.084;2022-08-21T13:06:39;26.00;99.90
1594;DHT22;790;47.000;16.084;2022-08-21T13:13:04;25.90;99.90
1594;DHT22;790;47.000;16.084;2022-08-21T13:19:27;25.70;99.90
1594;DHT22;790;47.000;16.084;2022-08-21T13:25:52;25.60;99.90
1594;DHT22;790;47.000;16.084;2022-08-21T13:32:22;25.40;99.90
1594;DHT22;790;47.000;16.084;2022-08-21T13:38:47;25.10;99.90
1594;DHT22;790;47.000;16.084;2022-08-21T13:45:17;24.90;99.90
1594;DHT22;790;47.000;16.084;2022-08-21T13:51:39;24.70;99.90
1594;DHT22;790;47.000;16.084;2022-08-21T13:58:02;24.80;99.90
1594;DHT22;790;47.000;16.084;2022-08-21T14:09:13;24.70;99.90
1594;DHT22;790;47.000;16.084;2022-08-21T14:15:30;24.50;99.90
1594;DHT22;790;47.000;16.084;2022-08-21T14:21:40;24.50;99.90
1594;DHT22;790;47.000;16.084;2022-08-21T14:27:53;24.50;99.90
1594;DHT22;790;47.000;16.084;2022-08-21T14:34:02;24.40;99.90
1594;DHT22;790;47.000;16.084;2022-08-21T14:40:11;24.30;99.90
1594;DHT22;790;47.000;16.084;2022-08-21T14:46:24;24.20;99.90
1594;DHT22;790;47.000;16.084;2022-08-21T14:52:33;24.20;99.90
1594;DHT22;790;47.000;16.084;2022-08-21T14:58:43;24.10;99.90
1594;DHT22;790;47.000;16.084;2022-08-21T15:09:19;24.20;99.90
1594;DHT22;790;47.000;16.084;2022-08-21T15:15:44;24.10;99.90
1594;DHT22;790;47.000;16.084;2022-08-21T15:22:08;24.00;99.90
1594;DHT22;790;47.000;16.084;2022-08-21T15:28:34;23.70;99.90
1594;DHT22;790;47.000;16.084;2022-08-21T15:35:01;23.80;99.90
1594;DHT22;790;47.000;16.084;2022-08-21T15:41:29;23.80;99.90
1594;DHT22;790;47.000;16.084;2022-08-21T15:47:52;24.10;99.90
1594;DHT22;790;47.000;16.084;2022-08-21T15:54:14;24.10;99.90
1594;DHT22;790;47.000;16.084;2022-08-21T16:00:36;24.00;99.90
1594;DHT22;790;47.000;16.084;2022-08-21T16:11:24;23.90;99.90
1594;DHT22;790;47.000;16.084;2022-08-21T16:17:35;23.90;99.90
1594;DHT22;790;47.000;16.084;2022-08-21T16:23:43;23.90;99.90
1594;DHT22;790;47.000;16.084;2022-08-21T16:29:53;23.80;99.90
1594;DHT22;790;47.000;16.084;2022-08-21T16:36:02;23.70;99.90
1594;DHT22;790;47.000;16.084;2022-08-21T16:42:13;23.60;99.90
1594;DHT22;790;47.000;16.084;2022-08-21T16:48:23;23.50;99.90
1594;DHT22;790;47.000;16.084;2022-08-21T16:54:32;23.50;99.90
1594;DHT22;790;47.000;16.084;2022-08-21T17:00:41;23.40;99.90
1594;DHT22;790;47.000;16.084;2022-08-21T17:11:05;23.20;99.90
1594;DHT22;790;47.000;16.084;2022-08-21T17:17:28;23.00;99.90
1594;DHT22;790;47.000;16.084;2022-08-21T17:23:50;22.90;99.90
1594;DHT22;790;47.000;16.084;2022-08-21T17:30:14;22.90;99.90
1594;DHT22;790;47.000;16.084;2022-08-21T17:36:35;22.70;99.90
1594;DHT22;790;47.000;16.084;2022-08-21T17:42:57;22.80;99.90
1594;DHT22;790;47.000;16.084;2022-08-21T17:49:19;22.80;99.90
1594;DHT22;790;47.000;16.084;2022-08-21T17:55:40;22.80;99.90
1594;DHT22;790;47.000;16.084;2022-08-21T18:02:03;22.70;99.90
1594;DHT22;790;47.000;16.084;2022-08-21T18:12:50;22.50;99.90
1594;DHT22;790;47.000;16.084;2022-08-21T18:18:59;22.40;99.90
1594;DHT22;790;47.000;16.084;2022-08-21T18:25:08;22.30;99.90
1594;DHT22;790;47.000;16.084;2022-08-21T18:31:18;22.30;99.90
1594;DHT22;790;47.000;16.084;2022-08-21T18:37:26;22.00;99.90
1594;DHT22;790;47.000;16.084;2022-08-21T18:43:34;21.90;99.90
1594;DHT22;790;47.000;16.084;2022-08-21T18:49:44;21.70;99.90
1594;DHT22;790;47.000;16.084;2022-08-21T18:55:53;21.60;99.90
1594;DHT22;790;47.000;16.084;2022-08-21T19:02:02;21.50;99.90
1594;DHT22;790;47.000;16.084;2022-08-21T19:12:29;21.30;99.90
1594;DHT22;790;47.000;16.084;2022-08-21T19:18:51;21.40;99.90
1594;DHT22;790;47.000;16.084;2022-08-21T19:25:13;21.30;99.90
1594;DHT22;790;47.000;16.084;2022-08-21T19:31:39;21.30;99.90
1594;DHT22;790;47.000;16.084;2022-08-21T19:38:01;21.10;99.90
1594;DHT22;790;47.000;16.084;2022-08-21T19:44:25;21.00;99.90
1594;DHT22;790;47.000;16.084;2022-08-21T19:50:49;20.80;99.90
1594;DHT22;790;47.000;16.084;2022-08-21T19:57:12;20.80;99.90
1594;DHT22;790;47.000;16.084;2022-08-21T20:03:34;20.60;99.90
1594;DHT22;790;47.000;16.084;2022-08-21T20:14:24;20.40;99.90
1594;DHT22;790;47.000;16.084;2022-08-21T20:20:33;20.30;99.90
1594;DHT22;790;47.000;16.084;2022-08-21T20:26:41;20.40;99.90
1594;DHT22;790;47.000;16.084;2022-08-21T20:32:50;20.40;99.90
1594;DHT22;790;47.000;16.084;2022-08-21T20:38:58;20.40;99.90
1594;DHT22;790;47.000;16.084;2022-08-21T20:45:06;20.30;99.90
1594;DHT22;790;47.000;16.084;2022-08-21T20:51:22;20.10;99.90
1594;DHT22;790;47.000;16.084;2022-08-21T20:57:35;20.00;99.90
1594;DHT22;790;47.000;16.084;2022-08-21T21:03:52;20.00;99.90
1594;DHT22;790;47.000;16.084;2022-08-21T21:14:18;19.80;99.90
1594;DHT22;790;47.000;16.084;2022-08-21T21:20:47;19.60;99.90
1594;DHT22;790;47.000;16.084;2022-08-21T21:27:25;19.50;99.90
1594;DHT22;790;47.000;16.084;2022-08-21T21:33:50;19.40;99.90
1594;DHT22;790;47.000;16.084;2022-08-21T21:40:29;19.40;99.90
1594;DHT22;790;47.000;16.084;2022-08-21T21:47:05;19.40;99.90
1594;DHT22;790;47.000;16.084;2022-08-21T21:53:39;19.20;99.90
1594;DHT22;790;47.000;16.084;2022-08-21T22:00:08;19.10;99.90
1594;DHT22;790;47.000;16.084;2022-08-21T22:06:38;19.20;99.90
1594;DHT22;790;47.000;16.084;2022-08-21T22:18:02;19.20;99.90
1594;DHT22;790;47.000;16.084;2022-08-21T22:24:16;19.20;99.90
1594;DHT22;790;47.000;16.084;2022-08-21T22:30:41;19.10;99.90
1594;DHT22;790;47.000;16.084;2022-08-21T22:36:55;19.10;99.90
1594;DHT22;790;47.000;16.084;2022-08-21T22:43:33;19.10;99.90
1594;DHT22;790;47.000;16.084;2022-08-21T22:49:45;19.10;99.90
1594;DHT22;790;47.000;16.084;2022-08-21T22:55:56;19.00;99.90
1594;DHT22;790;47.000;16.084;2022-08-21T23:02:09;19.00;99.90
1594;DHT22;790;47.000;16.084;2022-08-21T23:08:30;19.00;99.90
1594;DHT22;790;47.000;16.084;2022-08-21T23:19:43;19.10;99.90
1594;DHT22;790;47.000;16.084;2022-08-21T23:26:19;19.00;99.90
1594;DHT22;790;47.000;16.084;2022-08-21T23:33:05;18.90;99.90
1594;DHT22;790;47.000;16.084;2022-08-21T23:39:45;18.90;99.90
1594;DHT22;790;47.000;16.084;2022-08-21T23:46:20;18.80;99.90
1594;DHT22;790;47.000;16.084;2022-08-21T23:52:57;18.80;99.90
1594;DHT22;790;47.000;16.084;2022-08-21T23:59:29;18.80;99.90
